sensor_id;sensor_type;location;lat;lon;timestamp;P1;durP1;ratioP1;P2;durP2;ratioP2
43646;SDS011;56152;49.996;18.980;2023-06-10T00:02:42;14.48;;;9.85;;
43646;SDS011;56152;49.996;18.980;2023-06-10T00:07:46;13.90;;;11.45;;
43646;SDS011;56152;49.996;18.980;2023-06-10T00:12:51;12.77;;;10.70;;
43646;SDS011;56152;49.996;18.980;2023-06-10T00:17:54;12.52;;;11.18;;
43646;SDS011;56152;49.996;18.980;2023-06-10T00:22:57;15.00;;;11.68;;
43646;SDS011;56152;49.996;18.980;2023-06-10T00:28:02;15.98;;;12.20;;
43646;SDS011;56152;49.996;18.980;2023-06-10T00:33:04;16.73;;;13.32;;
43646;SDS011;56152;49.996;18.980;2023-06-10T00:38:09;13.52;;;11.88;;
43646;SDS011;56152;49.996;18.980;2023-06-10T00:43:13;15.73;;;13.15;;
43646;SDS011;56152;49.996;18.980;2023-06-10T00:48:14;13.55;;;11.10;;
43646;SDS011;56152;49.996;18.980;2023-06-10T00:53:17;15.93;;;12.50;;
43646;SDS011;56152;49.996;18.980;2023-06-10T00:58:22;15.43;;;12.07;;
43646;SDS011;56152;49.996;18.980;2023-06-10T01:03:25;13.70;;;11.75;;
43646;SDS011;56152;49.996;18.980;2023-06-10T01:08:28;15.63;;;11.10;;
43646;SDS011;56152;49.996;18.980;2023-06-10T01:13:39;12.82;;;10.90;;
43646;SDS011;56152;49.996;18.980;2023-06-10T01:18:44;13.18;;;10.73;;
43646;SDS011;56152;49.996;18.980;2023-06-10T01:23:47;11.85;;;10.52;;
43646;SDS011;56152;49.996;18.980;2023-06-10T01:28:52;16.50;;;12.38;;
43646;SDS011;56152;49.996;18.980;2023-06-10T01:34:00;14.85;;;12.52;;
43646;SDS011;56152;49.996;18.980;2023-06-10T01:39:04;16.15;;;14.45;;
43646;SDS011;56152;49.996;18.980;2023-06-10T01:44:09;16.30;;;14.65;;
43646;SDS011;56152;49.996;18.980;2023-06-10T01:49:11;19.73;;;16.48;;
43646;SDS011;56152;49.996;18.980;2023-06-10T01:54:14;15.55;;;13.98;;
43646;SDS011;56152;49.996;18.980;2023-06-10T01:59:16;18.20;;;16.20;;
43646;SDS011;56152;49.996;18.980;2023-06-10T02:04:19;18.63;;;16.60;;
43646;SDS011;56152;49.996;18.980;2023-06-10T02:09:22;20.08;;;16.77;;
43646;SDS011;56152;49.996;18.980;2023-06-10T02:14:24;20.00;;;17.70;;
43646;SDS011;56152;49.996;18.980;2023-06-10T02:19:26;17.88;;;16.02;;
43646;SDS011;56152;49.996;18.980;2023-06-10T02:24:30;19.00;;;16.52;;
43646;SDS011;56152;49.996;18.980;2023-06-10T02:29:32;21.38;;;18.92;;
43646;SDS011;56152;49.996;18.980;2023-06-10T02:34:34;18.42;;;16.17;;
43646;SDS011;56152;49.996;18.980;2023-06-10T02:39:38;16.77;;;14.93;;
43646;SDS011;56152;49.996;18.980;2023-06-10T02:44:40;18.63;;;16.70;;
43646;SDS011;56152;49.996;18.980;2023-06-10T02:49:42;20.80;;;16.13;;
43646;SDS011;56152;49.996;18.980;2023-06-10T02:54:46;17.25;;;14.45;;
43646;SDS011;56152;49.996;18.980;2023-06-10T02:59:48;16.55;;;14.98;;
43646;SDS011;56152;49.996;18.980;2023-06-10T03:04:51;16.58;;;14.75;;
43646;SDS011;56152;49.996;18.980;2023-06-10T03:09:55;17.30;;;15.23;;
43646;SDS011;56152;49.996;18.980;2023-06-10T03:15:00;16.08;;;14.48;;
43646;SDS011;56152;49.996;18.980;2023-06-10T03:20:04;21.88;;;14.98;;
43646;SDS011;56152;49.996;18.980;2023-06-10T03:25:12;16.38;;;14.77;;
43646;SDS011;56152;49.996;18.980;2023-06-10T03:30:16;15.57;;;13.30;;
43646;SDS011;56152;49.996;18.980;2023-06-10T03:35:18;17.40;;;15.07;;
43646;SDS011;56152;49.996;18.980;2023-06-10T03:40:24;17.83;;;16.00;;
43646;SDS011;56152;49.996;18.980;2023-06-10T03:45:26;17.80;;;15.88;;
43646;SDS011;56152;49.996;18.980;2023-06-10T03:50:29;21.63;;;16.48;;
43646;SDS011;56152;49.996;18.980;2023-06-10T03:55:32;15.90;;;14.13;;
43646;SDS011;56152;49.996;18.980;2023-06-10T04:00:35;18.40;;;16.40;;
43646;SDS011;56152;49.996;18.980;2023-06-10T04:05:41;16.48;;;14.77;;
43646;SDS011;56152;49.996;18.980;2023-06-10T04:10:45;15.93;;;13.82;;
43646;SDS011;56152;49.996;18.980;2023-06-10T04:15:47;21.08;;;16.85;;
43646;SDS011;56152;49.996;18.980;2023-06-10T04:20:49;18.67;;;16.80;;
43646;SDS011;56152;49.996;18.980;2023-06-10T04:25:53;17.45;;;15.57;;
43646;SDS011;56152;49.996;18.980;2023-06-10T04:30:59;22.20;;;18.38;;
43646;SDS011;56152;49.996;18.980;2023-06-10T04:36:00;18.70;;;16.80;;
43646;SDS011;56152;49.996;18.980;2023-06-10T04:41:06;20.15;;;17.67;;
43646;SDS011;56152;49.996;18.980;2023-06-10T04:46:09;24.20;;;18.58;;
43646;SDS011;56152;49.996;18.980;2023-06-10T04:51:11;21.10;;;18.83;;
43646;SDS011;56152;49.996;18.980;2023-06-10T04:56:18;20.00;;;16.50;;
43646;SDS011;56152;49.996;18.980;2023-06-10T05:01:20;17.30;;;14.63;;
43646;SDS011;56152;49.996;18.980;2023-06-10T05:06:22;20.50;;;16.00;;
43646;SDS011;56152;49.996;18.980;2023-06-10T05:11:27;19.15;;;16.85;;
43646;SDS011;56152;49.996;18.980;2023-06-10T05:16:29;16.15;;;14.55;;
43646;SDS011;56152;49.996;18.980;2023-06-10T05:21:31;17.38;;;15.55;;
43646;SDS011;56152;49.996;18.980;2023-06-10T05:26:35;15.32;;;13.70;;
43646;SDS011;56152;49.996;18.980;2023-06-10T05:31:41;18.52;;;13.77;;
43646;SDS011;56152;49.996;18.980;2023-06-10T05:36:44;16.52;;;14.25;;
43646;SDS011;56152;49.996;18.980;2023-06-10T05:41:47;14.70;;;13.20;;
43646;SDS011;56152;49.996;18.980;2023-06-10T05:46:50;20.92;;;17.83;;
43646;SDS011;56152;49.996;18.980;2023-06-10T05:51:52;14.30;;;12.85;;
43646;SDS011;56152;49.996;18.980;2023-06-10T05:56:57;15.07;;;12.75;;
43646;SDS011;56152;49.996;18.980;2023-06-10T06:01:59;14.65;;;13.25;;
43646;SDS011;56152;49.996;18.980;2023-06-10T06:07:01;16.83;;;13.40;;
43646;SDS011;56152;49.996;18.980;2023-06-10T06:12:05;11.43;;;10.20;;
43646;SDS011;56152;49.996;18.980;2023-06-10T06:17:08;17.83;;;12.15;;
43646;SDS011;56152;49.996;18.980;2023-06-10T06:22:15;13.68;;;11.00;;
43646;SDS011;56152;49.996;18.980;2023-06-10T06:27:22;15.52;;;11.32;;
43646;SDS011;56152;49.996;18.980;2023-06-10T06:32:24;13.93;;;10.88;;
43646;SDS011;56152;49.996;18.980;2023-06-10T06:37:27;17.08;;;11.15;;
43646;SDS011;56152;49.996;18.980;2023-06-10T06:42:30;16.27;;;9.40;;
43646;SDS011;56152;49.996;18.980;2023-06-10T06:47:32;10.10;;;7.90;;
43646;SDS011;56152;49.996;18.980;2023-06-10T06:52:34;10.77;;;9.02;;
43646;SDS011;56152;49.996;18.980;2023-06-10T06:57:37;9.07;;;7.10;;
43646;SDS011;56152;49.996;18.980;2023-06-10T07:02:39;12.23;;;7.47;;
43646;SDS011;56152;49.996;18.980;2023-06-10T07:07:41;14.63;;;10.45;;
43646;SDS011;56152;49.996;18.980;2023-06-10T07:12:45;14.80;;;10.20;;
43646;SDS011;56152;49.996;18.980;2023-06-10T07:17:51;12.35;;;9.98;;
43646;SDS011;56152;49.996;18.980;2023-06-10T07:22:52;15.75;;;10.27;;
43646;SDS011;56152;49.996;18.980;2023-06-10T07:27:58;15.80;;;9.27;;
43646;SDS011;56152;49.996;18.980;2023-06-10T07:33:03;11.15;;;9.25;;
43646;SDS011;56152;49.996;18.980;2023-06-10T07:38:07;11.43;;;8.57;;
43646;SDS011;56152;49.996;18.980;2023-06-10T07:43:13;14.73;;;9.05;;
43646;SDS011;56152;49.996;18.980;2023-06-10T07:48:18;9.73;;;7.93;;
43646;SDS011;56152;49.996;18.980;2023-06-10T07:53:19;15.85;;;7.32;;
43646;SDS011;56152;49.996;18.980;2023-06-10T07:58:30;10.30;;;7.72;;
43646;SDS011;56152;49.996;18.980;2023-06-10T08:03:34;9.75;;;8.75;;
43646;SDS011;56152;49.996;18.980;2023-06-10T08:08:36;9.93;;;6.95;;
43646;SDS011;56152;49.996;18.980;2023-06-10T08:13:44;8.30;;;7.15;;
43646;SDS011;56152;49.996;18.980;2023-06-10T08:18:46;7.20;;;6.30;;
43646;SDS011;56152;49.996;18.980;2023-06-10T08:23:52;17.25;;;7.57;;
43646;SDS011;56152;49.996;18.980;2023-06-10T08:28:56;7.57;;;5.30;;
43646;SDS011;56152;49.996;18.980;2023-06-10T08:33:57;7.97;;;5.55;;
43646;SDS011;56152;49.996;18.980;2023-06-10T08:38:59;9.25;;;6.18;;
43646;SDS011;56152;49.996;18.980;2023-06-10T08:44:06;7.40;;;5.90;;
43646;SDS011;56152;49.996;18.980;2023-06-10T08:49:14;8.73;;;6.57;;
43646;SDS011;56152;49.996;18.980;2023-06-10T08:54:28;9.23;;;5.80;;
43646;SDS011;56152;49.996;18.980;2023-06-10T08:59:34;10.63;;;6.47;;
43646;SDS011;56152;49.996;18.980;2023-06-10T09:04:41;10.85;;;6.80;;
43646;SDS011;56152;49.996;18.980;2023-06-10T09:09:44;7.40;;;5.45;;
43646;SDS011;56152;49.996;18.980;2023-06-10T09:14:48;10.93;;;6.32;;
43646;SDS011;56152;49.996;18.980;2023-06-10T09:19:50;6.65;;;5.75;;
43646;SDS011;56152;49.996;18.980;2023-06-10T09:25:01;12.25;;;5.85;;
43646;SDS011;56152;49.996;18.980;2023-06-10T09:30:08;7.45;;;5.28;;
43646;SDS011;56152;49.996;18.980;2023-06-10T09:35:11;7.13;;;5.32;;
43646;SDS011;56152;49.996;18.980;2023-06-10T09:40:13;6.65;;;5.72;;
43646;SDS011;56152;49.996;18.980;2023-06-10T09:45:17;5.93;;;4.93;;
43646;SDS011;56152;49.996;18.980;2023-06-10T09:50:19;7.97;;;5.68;;
43646;SDS011;56152;49.996;18.980;2023-06-10T09:55:22;26.77;;;6.50;;
43646;SDS011;56152;49.996;18.980;2023-06-10T10:00:27;10.05;;;5.85;;
43646;SDS011;56152;49.996;18.980;2023-06-10T10:05:29;6.30;;;4.65;;
43646;SDS011;56152;49.996;18.980;2023-06-10T10:10:31;6.60;;;4.78;;
43646;SDS011;56152;49.996;18.980;2023-06-10T10:15:34;17.25;;;6.80;;
43646;SDS011;56152;49.996;18.980;2023-06-10T10:20:41;6.97;;;5.15;;
43646;SDS011;56152;49.996;18.980;2023-06-10T10:25:49;9.50;;;5.40;;
43646;SDS011;56152;49.996;18.980;2023-06-10T10:30:54;9.50;;;5.22;;
43646;SDS011;56152;49.996;18.980;2023-06-10T10:36:05;10.48;;;5.55;;
43646;SDS011;56152;49.996;18.980;2023-06-10T10:41:08;10.45;;;4.88;;
43646;SDS011;56152;49.996;18.980;2023-06-10T10:46:13;12.40;;;4.85;;
43646;SDS011;56152;49.996;18.980;2023-06-10T10:51:18;14.07;;;3.67;;
43646;SDS011;56152;49.996;18.980;2023-06-10T10:56:19;6.57;;;3.75;;
43646;SDS011;56152;49.996;18.980;2023-06-10T11:01:23;6.22;;;3.72;;
43646;SDS011;56152;49.996;18.980;2023-06-10T11:06:26;9.80;;;4.40;;
43646;SDS011;56152;49.996;18.980;2023-06-10T11:11:37;10.68;;;4.82;;
43646;SDS011;56152;49.996;18.980;2023-06-10T11:16:52;11.95;;;5.28;;
43646;SDS011;56152;49.996;18.980;2023-06-10T11:21:57;9.02;;;5.78;;
43646;SDS011;56152;49.996;18.980;2023-06-10T11:32:24;10.48;;;5.50;;
43646;SDS011;56152;49.996;18.980;2023-06-10T11:37:30;8.43;;;5.70;;
43646;SDS011;56152;49.996;18.980;2023-06-10T11:42:35;8.75;;;5.82;;
43646;SDS011;56152;49.996;18.980;2023-06-10T11:47:54;8.27;;;5.88;;
43646;SDS011;56152;49.996;18.980;2023-06-10T11:52:57;6.68;;;4.90;;
43646;SDS011;56152;49.996;18.980;2023-06-10T11:58:02;8.80;;;6.22;;
43646;SDS011;56152;49.996;18.980;2023-06-10T12:03:08;9.20;;;6.75;;
43646;SDS011;56152;49.996;18.980;2023-06-10T12:08:11;11.95;;;5.68;;
43646;SDS011;56152;49.996;18.980;2023-06-10T12:13:13;14.25;;;6.85;;
43646;SDS011;56152;49.996;18.980;2023-06-10T12:18:17;9.15;;;5.82;;
43646;SDS011;56152;49.996;18.980;2023-06-10T12:23:19;9.85;;;5.40;;
43646;SDS011;56152;49.996;18.980;2023-06-10T12:28:33;7.45;;;5.47;;
43646;SDS011;56152;49.996;18.980;2023-06-10T12:33:37;11.57;;;5.80;;
43646;SDS011;56152;49.996;18.980;2023-06-10T12:38:39;29.58;;;9.10;;
43646;SDS011;56152;49.996;18.980;2023-06-10T12:43:41;14.55;;;5.95;;
43646;SDS011;56152;49.996;18.980;2023-06-10T12:48:50;22.95;;;9.60;;
43646;SDS011;56152;49.996;18.980;2023-06-10T12:53:54;7.95;;;5.90;;
43646;SDS011;56152;49.996;18.980;2023-06-10T12:58:59;12.73;;;6.45;;
43646;SDS011;56152;49.996;18.980;2023-06-10T13:04:03;13.55;;;5.57;;
43646;SDS011;56152;49.996;18.980;2023-06-10T13:09:08;6.38;;;4.10;;
43646;SDS011;56152;49.996;18.980;2023-06-10T13:14:10;8.13;;;3.53;;
43646;SDS011;56152;49.996;18.980;2023-06-10T13:19:14;8.25;;;3.80;;
43646;SDS011;56152;49.996;18.980;2023-06-10T13:24:16;6.15;;;3.17;;
43646;SDS011;56152;49.996;18.980;2023-06-10T13:29:19;10.60;;;3.63;;
43646;SDS011;56152;49.996;18.980;2023-06-10T13:34:23;8.48;;;3.83;;
43646;SDS011;56152;49.996;18.980;2023-06-10T13:39:25;6.25;;;3.58;;
43646;SDS011;56152;49.996;18.980;2023-06-10T13:44:27;4.85;;;3.25;;
43646;SDS011;56152;49.996;18.980;2023-06-10T13:49:34;10.07;;;3.72;;
43646;SDS011;56152;49.996;18.980;2023-06-10T13:54:37;6.97;;;3.60;;
43646;SDS011;56152;49.996;18.980;2023-06-10T13:59:39;5.93;;;3.70;;
43646;SDS011;56152;49.996;18.980;2023-06-10T14:04:42;3.55;;;3.22;;
43646;SDS011;56152;49.996;18.980;2023-06-10T14:09:44;4.78;;;3.10;;
43646;SDS011;56152;49.996;18.980;2023-06-10T14:14:46;9.80;;;3.47;;
43646;SDS011;56152;49.996;18.980;2023-06-10T14:19:49;4.82;;;3.70;;
43646;SDS011;56152;49.996;18.980;2023-06-10T14:24:51;4.43;;;3.53;;
43646;SDS011;56152;49.996;18.980;2023-06-10T14:29:53;4.28;;;3.60;;
43646;SDS011;56152;49.996;18.980;2023-06-10T14:34:56;4.55;;;3.65;;
43646;SDS011;56152;49.996;18.980;2023-06-10T14:39:58;4.93;;;3.63;;
43646;SDS011;56152;49.996;18.980;2023-06-10T14:45:01;8.25;;;3.83;;
43646;SDS011;56152;49.996;18.980;2023-06-10T14:50:08;6.93;;;3.10;;
43646;SDS011;56152;49.996;18.980;2023-06-10T14:55:10;5.25;;;3.28;;
43646;SDS011;56152;49.996;18.980;2023-06-10T15:00:12;10.10;;;4.13;;
43646;SDS011;56152;49.996;18.980;2023-06-10T15:05:18;4.47;;;2.80;;
43646;SDS011;56152;49.996;18.980;2023-06-10T15:10:20;5.50;;;3.35;;
43646;SDS011;56152;49.996;18.980;2023-06-10T15:15:22;6.63;;;3.53;;
43646;SDS011;56152;49.996;18.980;2023-06-10T15:20:26;5.40;;;3.90;;
43646;SDS011;56152;49.996;18.980;2023-06-10T15:25:28;10.02;;;3.80;;
43646;SDS011;56152;49.996;18.980;2023-06-10T15:30:30;4.93;;;3.20;;
43646;SDS011;56152;49.996;18.980;2023-06-10T15:35:34;7.93;;;3.40;;
43646;SDS011;56152;49.996;18.980;2023-06-10T15:40:37;9.95;;;4.53;;
43646;SDS011;56152;49.996;18.980;2023-06-10T15:45:42;5.45;;;3.67;;
43646;SDS011;56152;49.996;18.980;2023-06-10T15:50:46;13.02;;;3.78;;
43646;SDS011;56152;49.996;18.980;2023-06-10T15:55:49;5.22;;;3.53;;
43646;SDS011;56152;49.996;18.980;2023-06-10T16:00:51;6.32;;;2.80;;
43646;SDS011;56152;49.996;18.980;2023-06-10T16:05:54;4.85;;;2.85;;
43646;SDS011;56152;49.996;18.980;2023-06-10T16:10:56;3.30;;;2.78;;
43646;SDS011;56152;49.996;18.980;2023-06-10T16:15:58;4.13;;;2.97;;
43646;SDS011;56152;49.996;18.980;2023-06-10T16:21:04;4.15;;;3.10;;
43646;SDS011;56152;49.996;18.980;2023-06-10T16:26:06;3.92;;;2.92;;
43646;SDS011;56152;49.996;18.980;2023-06-10T16:31:08;6.82;;;2.78;;
43646;SDS011;56152;49.996;18.980;2023-06-10T16:36:11;6.93;;;3.60;;
43646;SDS011;56152;49.996;18.980;2023-06-10T16:41:13;5.00;;;3.85;;
43646;SDS011;56152;49.996;18.980;2023-06-10T16:46:16;4.18;;;3.25;;
43646;SDS011;56152;49.996;18.980;2023-06-10T16:51:21;7.03;;;4.57;;
43646;SDS011;56152;49.996;18.980;2023-06-10T16:56:23;5.55;;;4.00;;
43646;SDS011;56152;49.996;18.980;2023-06-10T17:01:26;5.50;;;3.30;;
43646;SDS011;56152;49.996;18.980;2023-06-10T17:06:30;4.35;;;3.20;;
43646;SDS011;56152;49.996;18.980;2023-06-10T17:11:32;3.20;;;2.90;;
43646;SDS011;56152;49.996;18.980;2023-06-10T17:16:36;4.15;;;3.20;;
43646;SDS011;56152;49.996;18.980;2023-06-10T17:21:40;5.03;;;3.10;;
43646;SDS011;56152;49.996;18.980;2023-06-10T17:26:42;9.13;;;3.75;;
43646;SDS011;56152;49.996;18.980;2023-06-10T17:31:44;5.20;;;3.38;;
43646;SDS011;56152;49.996;18.980;2023-06-10T17:36:47;4.50;;;3.20;;
43646;SDS011;56152;49.996;18.980;2023-06-10T17:41:55;5.20;;;2.97;;
43646;SDS011;56152;49.996;18.980;2023-06-10T17:46:56;5.43;;;3.25;;
43646;SDS011;56152;49.996;18.980;2023-06-10T17:52:00;5.35;;;2.70;;
43646;SDS011;56152;49.996;18.980;2023-06-10T17:57:04;3.78;;;3.17;;
43646;SDS011;56152;49.996;18.980;2023-06-10T18:02:08;4.43;;;3.10;;
43646;SDS011;56152;49.996;18.980;2023-06-10T18:07:14;6.35;;;2.60;;
43646;SDS011;56152;49.996;18.980;2023-06-10T18:12:16;3.10;;;2.50;;
43646;SDS011;56152;49.996;18.980;2023-06-10T18:17:18;3.88;;;2.90;;
43646;SDS011;56152;49.996;18.980;2023-06-10T18:22:22;7.10;;;3.45;;
43646;SDS011;56152;49.996;18.980;2023-06-10T18:27:25;3.78;;;3.00;;
43646;SDS011;56152;49.996;18.980;2023-06-10T18:32:27;8.73;;;3.10;;
43646;SDS011;56152;49.996;18.980;2023-06-10T18:37:30;9.55;;;3.38;;
43646;SDS011;56152;49.996;18.980;2023-06-10T18:42:32;4.13;;;2.97;;
43646;SDS011;56152;49.996;18.980;2023-06-10T18:47:34;4.70;;;3.55;;
43646;SDS011;56152;49.996;18.980;2023-06-10T18:52:38;5.45;;;3.65;;
43646;SDS011;56152;49.996;18.980;2023-06-10T18:57:41;5.68;;;3.00;;
43646;SDS011;56152;49.996;18.980;2023-06-10T19:02:45;5.53;;;3.88;;
43646;SDS011;56152;49.996;18.980;2023-06-10T19:07:48;6.95;;;4.57;;
43646;SDS011;56152;49.996;18.980;2023-06-10T19:12:56;11.43;;;7.40;;
43646;SDS011;56152;49.996;18.980;2023-06-10T19:18:02;43.75;;;4.85;;
43646;SDS011;56152;49.996;18.980;2023-06-10T19:23:14;11.45;;;4.55;;
43646;SDS011;56152;49.996;18.980;2023-06-10T19:28:17;10.43;;;5.68;;
43646;SDS011;56152;49.996;18.980;2023-06-10T19:33:33;9.50;;;6.25;;
43646;SDS011;56152;49.996;18.980;2023-06-10T19:38:45;9.35;;;6.30;;
43646;SDS011;56152;49.996;18.980;2023-06-10T19:43:47;6.57;;;4.28;;
43646;SDS011;56152;49.996;18.980;2023-06-10T19:48:49;8.48;;;4.88;;
43646;SDS011;56152;49.996;18.980;2023-06-10T19:53:53;5.40;;;3.80;;
43646;SDS011;56152;49.996;18.980;2023-06-10T19:58:58;5.22;;;3.95;;
43646;SDS011;56152;49.996;18.980;2023-06-10T20:04:00;7.00;;;4.00;;
43646;SDS011;56152;49.996;18.980;2023-06-10T20:09:03;6.03;;;4.18;;
43646;SDS011;56152;49.996;18.980;2023-06-10T20:14:08;8.48;;;4.70;;
43646;SDS011;56152;49.996;18.980;2023-06-10T20:19:13;7.18;;;4.38;;
43646;SDS011;56152;49.996;18.980;2023-06-10T20:24:20;10.30;;;5.45;;
43646;SDS011;56152;49.996;18.980;2023-06-10T20:29:23;5.82;;;4.00;;
43646;SDS011;56152;49.996;18.980;2023-06-10T20:34:26;5.43;;;3.90;;
43646;SDS011;56152;49.996;18.980;2023-06-10T20:39:30;9.35;;;4.72;;
43646;SDS011;56152;49.996;18.980;2023-06-10T20:44:33;8.75;;;5.82;;
43646;SDS011;56152;49.996;18.980;2023-06-10T20:49:35;6.80;;;4.10;;
43646;SDS011;56152;49.996;18.980;2023-06-10T20:54:38;8.38;;;4.55;;
43646;SDS011;56152;49.996;18.980;2023-06-10T20:59:40;7.85;;;5.13;;
43646;SDS011;56152;49.996;18.980;2023-06-10T21:04:42;6.20;;;5.13;;
43646;SDS011;56152;49.996;18.980;2023-06-10T21:09:46;8.25;;;4.88;;
43646;SDS011;56152;49.996;18.980;2023-06-10T21:14:48;6.90;;;3.75;;
43646;SDS011;56152;49.996;18.980;2023-06-10T21:19:50;6.43;;;3.90;;
43646;SDS011;56152;49.996;18.980;2023-06-10T21:24:54;4.68;;;3.70;;
43646;SDS011;56152;49.996;18.980;2023-06-10T21:29:56;6.90;;;4.90;;
43646;SDS011;56152;49.996;18.980;2023-06-10T21:35:01;7.13;;;4.72;;
43646;SDS011;56152;49.996;18.980;2023-06-10T21:40:11;7.75;;;5.72;;
43646;SDS011;56152;49.996;18.980;2023-06-10T21:45:14;5.97;;;4.20;;
43646;SDS011;56152;49.996;18.980;2023-06-10T21:50:16;6.43;;;4.13;;
43646;SDS011;56152;49.996;18.980;2023-06-10T21:55:22;5.80;;;4.03;;
43646;SDS011;56152;49.996;18.980;2023-06-10T22:00:24;5.38;;;4.30;;
43646;SDS011;56152;49.996;18.980;2023-06-10T22:05:25;7.05;;;4.78;;
43646;SDS011;56152;49.996;18.980;2023-06-10T22:10:29;7.45;;;5.28;;
43646;SDS011;56152;49.996;18.980;2023-06-10T22:15:31;5.88;;;4.70;;
43646;SDS011;56152;49.996;18.980;2023-06-10T22:20:33;8.48;;;5.85;;
43646;SDS011;56152;49.996;18.980;2023-06-10T22:25:38;5.95;;;4.18;;
43646;SDS011;56152;49.996;18.980;2023-06-10T22:30:40;8.25;;;5.25;;
43646;SDS011;56152;49.996;18.980;2023-06-10T22:35:42;11.40;;;6.78;;
43646;SDS011;56152;49.996;18.980;2023-06-10T22:40:46;15.48;;;5.28;;
43646;SDS011;56152;49.996;18.980;2023-06-10T22:45:48;6.20;;;5.60;;
43646;SDS011;56152;49.996;18.980;2023-06-10T22:50:50;7.25;;;5.00;;
43646;SDS011;56152;49.996;18.980;2023-06-10T22:55:54;8.52;;;6.35;;
43646;SDS011;56152;49.996;18.980;2023-06-10T23:00:56;6.25;;;4.70;;
43646;SDS011;56152;49.996;18.980;2023-06-10T23:05:58;7.85;;;5.43;;
43646;SDS011;56152;49.996;18.980;2023-06-10T23:11:02;7.53;;;5.65;;
43646;SDS011;56152;49.996;18.980;2023-06-10T23:16:04;11.52;;;6.93;;
43646;SDS011;56152;49.996;18.980;2023-06-10T23:21:07;6.90;;;4.95;;
43646;SDS011;56152;49.996;18.980;2023-06-10T23:26:11;7.82;;;5.28;;
43646;SDS011;56152;49.996;18.980;2023-06-10T23:31:13;6.80;;;5.25;;
43646;SDS011;56152;49.996;18.980;2023-06-10T23:36:15;6.05;;;4.85;;
43646;SDS011;56152;49.996;18.980;2023-06-10T23:41:21;10.85;;;5.03;;
43646;SDS011;56152;49.996;18.980;2023-06-10T23:46:24;9.20;;;5.15;;
43646;SDS011;56152;49.996;18.980;2023-06-10T23:51:26;6.72;;;5.00;;
43646;SDS011;56152;49.996;18.980;2023-06-10T23:56:31;6.00;;;5.15;;
